Time;durP1;ratioP1;P1;durP2;ratioP2;P2;SDS_P1;SDS_P2;PMS_P1;PMS_P2;Temp;Humidity;BMP_temperature;BMP_pressure;BME280_temperature;BME280_humidity;BME280_pressure;Samples;Min_cycle;Max_cycle;Signal;HPM_P1;HPM_P2
2023/01/15 00:02:12;;;;;;;13.20;6.40;;;;;;;;;;105144;1259;59740;-49
2023/01/15 00:04:38;;;;;;;11.90;6.10;;;;;;;;;;105078;1261;61477;-47
2023/01/15 00:07:05;;;;;;;11.30;5.60;;;;;;;;;;104979;1254;59829;-45
2023/01/15 00:09:32;;;;;;;12.60;6.10;;;;;;;;;;104964;1254;59674;-48
2023/01/15 00:11:59;;;;;;;11.60;6.00;;;;;;;;;;105115;1258;62511;-46
2023/01/15 00:14:26;;;;;;;10.10;5.40;;;;;;;;;;105166;1254;59724;-47
2023/01/15 00:16:53;;;;;;;12.10;5.70;;;;;;;;;;105125;1254;61583;-47
2023/01/15 00:19:19;;;;;;;12.10;5.80;;;;;;;;;;105157;1253;59640;-46
2023/01/15 00:21:46;;;;;;;8.80;4.80;;;;;;;;;;105264;1260;59665;-45
2023/01/15 00:29:45;;;;;;;11.60;6.20;;;;;;;;;;105464;1257;62174;-47
2023/01/15 00:32:12;;;;;;;12.10;6.10;;;;;;;;;;105159;1256;60286;-49
2023/01/15 00:34:38;;;;;;;12.60;6.50;;;;;;;;;;105051;1257;59673;-48
2023/01/15 00:37:05;;;;;;;9.00;5.20;;;;;;;;;;105087;1260;62444;-48
2023/01/15 00:39:33;;;;;;;12.90;6.60;;;;;;;;;;105162;1259;59834;-47
2023/01/15 00:42:00;;;;;;;10.90;5.00;;;;;;;;;;105203;1257;61953;-44
2023/01/15 00:44:26;;;;;;;9.30;4.70;;;;;;;;;;105036;1260;60225;-46
2023/01/15 00:46:53;;;;;;;9.80;5.00;;;;;;;;;;105169;1253;59727;-48
2023/01/15 00:49:20;;;;;;;9.30;4.20;;;;;;;;;;105263;1255;61365;-45
2023/01/15 00:51:48;;;;;;;11.90;5.50;;;;;;;;;;105268;1254;59627;-47
2023/01/15 00:54:15;;;;;;;7.60;4.70;;;;;;;;;;105605;1259;61770;-48
2023/01/15 00:56:42;;;;;;;7.40;4.10;;;;;;;;;;105078;1260;59750;-46
2023/01/15 00:59:09;;;;;;;7.30;4.40;;;;;;;;;;105089;1253;59653;-48
2023/01/15 01:01:36;;;;;;;10.30;4.90;;;;;;;;;;105185;1259;62048;-45
2023/01/15 01:04:04;;;;;;;8.60;4.30;;;;;;;;;;105613;1254;60005;-48
2023/01/15 01:06:30;;;;;;;8.10;4.10;;;;;;;;;;105412;1257;60583;-48
2023/01/15 01:08:58;;;;;;;7.90;4.40;;;;;;;;;;105502;1254;59675;-49
2023/01/15 01:11:25;;;;;;;8.90;4.60;;;;;;;;;;104835;1254;59624;-47
2023/01/15 01:13:53;;;;;;;7.30;4.00;;;;;;;;;;105349;1254;61278;-44
2023/01/15 01:16:19;;;;;;;6.60;3.50;;;;;;;;;;105365;1256;60889;-50
2023/01/15 01:18:46;;;;;;;7.90;4.50;;;;;;;;;;105343;1259;61723;-48
2023/01/15 01:21:13;;;;;;;4.80;2.40;;;;;;;;;;105371;1256;59804;-48
2023/01/15 01:23:40;;;;;;;6.70;3.00;;;;;;;;;;105537;1254;59726;-49
2023/01/15 01:26:07;;;;;;;9.40;3.90;;;;;;;;;;105558;1254;61026;-45
2023/01/15 01:28:33;;;;;;;9.50;4.60;;;;;;;;;;105471;1257;59753;-46
2023/01/15 01:31:03;;;;;;;6.20;3.60;;;;;;;;;;105484;1256;61800;-45
2023/01/15 01:33:29;;;;;;;7.10;3.90;;;;;;;;;;105959;1261;60055;-49
2023/01/15 01:35:56;;;;;;;9.30;4.30;;;;;;;;;;105472;1259;59714;-47
2023/01/15 01:38:23;;;;;;;9.50;4.90;;;;;;;;;;105453;1253;61351;-45
2023/01/15 01:40:49;;;;;;;6.40;4.00;;;;;;;;;;105404;1255;59736;-46
2023/01/15 01:43:18;;;;;;;8.30;3.70;;;;;;;;;;105470;1259;61670;-48
2023/01/15 01:45:44;;;;;;;14.80;7.60;;;;;;;;;;105269;1262;59625;-47
2023/01/15 01:48:11;;;;;;;10.10;5.20;;;;;;;;;;105434;1254;59689;-49
2023/01/15 01:50:38;;;;;;;22.40;12.50;;;;;;;;;;105189;1254;61873;-45
2023/01/15 01:53:12;;;;;;;13.30;7.00;;;;;;;;;;104980;1254;59701;-48
2023/01/15 01:55:39;;;;;;;19.80;9.70;;;;;;;;;;105340;1253;61712;-48
2023/01/15 01:58:08;;;;;;;10.90;5.90;;;;;;;;;;104963;1261;59631;-48
2023/01/15 02:00:35;;;;;;;11.50;5.80;;;;;;;;;;105380;1256;59541;-49
2023/01/15 02:03:02;;;;;;;9.70;4.70;;;;;;;;;;105282;1253;62379;-47
2023/01/15 02:05:32;;;;;;;14.30;7.20;;;;;;;;;;105108;1260;59682;-46
2023/01/15 02:08:00;;;;;;;9.70;5.10;;;;;;;;;;105484;1258;61829;-47
2023/01/15 02:10:28;;;;;;;12.30;5.70;;;;;;;;;;105568;1254;60822;-49
2023/01/15 02:13:07;;;;;;;12.50;5.80;;;;;;;;;;105078;1261;59881;-47
2023/01/15 02:15:42;;;;;;;16.10;8.00;;;;;;;;;;105078;1253;61917;-45
2023/01/15 02:18:22;;;;;;;8.10;4.70;;;;;;;;;;106111;1253;59740;-48
2023/01/15 02:20:50;;;;;;;7.60;5.20;;;;;;;;;;105177;1259;61910;-47
2023/01/15 02:25:19;;;;;;;7.80;4.70;;;;;;;;;;101712;1291;600725;-45
2023/01/15 02:27:48;;;;;;;10.30;4.50;;;;;;;;;;104455;1267;59539;-47
2023/01/15 02:30:17;;;;;;;7.30;4.10;;;;;;;;;;104271;1266;59078;-48
2023/01/15 02:32:54;;;;;;;6.60;3.70;;;;;;;;;;104255;1272;61395;-50
2023/01/15 02:35:28;;;;;;;8.30;5.10;;;;;;;;;;104747;1272;59662;-45
2023/01/15 02:37:56;;;;;;;11.70;6.20;;;;;;;;;;104649;1263;99948;-45
2023/01/15 02:40:23;;;;;;;9.10;4.80;;;;;;;;;;104631;1269;59062;-47
2023/01/15 02:42:50;;;;;;;9.00;5.70;;;;;;;;;;104555;1265;59185;-48
2023/01/15 02:45:22;;;;;;;10.20;5.60;;;;;;;;;;104357;1270;61421;-47
2023/01/15 02:47:50;;;;;;;8.30;4.50;;;;;;;;;;104673;1263;59103;-46
2023/01/15 02:50:16;;;;;;;8.50;5.30;;;;;;;;;;104425;1269;60946;-47
2023/01/15 02:52:44;;;;;;;11.80;6.40;;;;;;;;;;104286;1263;59749;-47
2023/01/15 02:55:13;;;;;;;10.90;5.80;;;;;;;;;;104855;1258;60296;-49
2023/01/15 02:57:42;;;;;;;11.20;6.40;;;;;;;;;;104896;1255;61508;-49
2023/01/15 03:00:10;;;;;;;11.20;5.60;;;;;;;;;;104804;1257;59769;-46
2023/01/15 03:02:39;;;;;;;9.70;5.40;;;;;;;;;;104862;1257;61717;-48
2023/01/15 03:05:22;;;;;;;10.00;5.70;;;;;;;;;;105051;1262;59746;-47
2023/01/15 03:07:59;;;;;;;11.90;6.10;;;;;;;;;;105152;1262;59930;-48
2023/01/15 03:10:35;;;;;;;11.50;6.30;;;;;;;;;;104877;1257;62626;-48
2023/01/15 03:13:02;;;;;;;13.50;7.00;;;;;;;;;;105275;1257;59723;-49
2023/01/15 03:18:26;;;;;;;9.80;5.40;;;;;;;;;;104753;1262;59727;-47
2023/01/15 03:20:54;;;;;;;12.70;6.70;;;;;;;;;;104804;1263;61548;-47
2023/01/15 03:23:24;;;;;;;11.60;5.00;;;;;;;;;;105021;1258;61215;-47
2023/01/15 03:25:52;;;;;;;10.70;5.60;;;;;;;;;;105364;1257;59768;-48
2023/01/15 03:28:20;;;;;;;10.50;5.60;;;;;;;;;;104941;1262;61862;-48
2023/01/15 03:30:47;;;;;;;10.60;5.70;;;;;;;;;;105231;1263;59803;-48
2023/01/15 03:33:14;;;;;;;9.50;5.40;;;;;;;;;;105019;1257;59663;-48
2023/01/15 03:35:45;;;;;;;14.80;7.20;;;;;;;;;;105042;1261;62627;-48
2023/01/15 03:38:18;;;;;;;14.10;6.80;;;;;;;;;;104796;1257;59638;-46
2023/01/15 03:40:51;;;;;;;12.10;6.00;;;;;;;;;;104819;1257;61797;-45
2023/01/15 03:46:06;;;;;;;11.40;5.40;;;;;;;;;;104863;1257;59660;-47
2023/01/15 03:48:34;;;;;;;21.10;8.60;;;;;;;;;;104811;1258;61021;-47
2023/01/15 03:51:08;;;;;;;22.20;9.10;;;;;;;;;;104896;1257;61510;-47
2023/01/15 03:53:37;;;;;;;14.90;7.70;;;;;;;;;;104888;1259;60434;-46
2023/01/15 03:56:09;;;;;;;14.50;7.30;;;;;;;;;;105209;1262;59631;-49
2023/01/15 03:58:44;;;;;;;16.70;7.20;;;;;;;;;;104920;1257;59852;-47
2023/01/15 04:01:14;;;;;;;13.20;6.30;;;;;;;;;;104835;1257;62455;-45
2023/01/15 04:03:41;;;;;;;15.10;7.30;;;;;;;;;;105074;1263;59727;-46
2023/01/15 04:06:07;;;;;;;12.70;6.00;;;;;;;;;;104742;1257;61872;-48
2023/01/15 04:08:37;;;;;;;10.30;5.60;;;;;;;;;;104604;1258;59758;-48
2023/01/15 04:11:03;;;;;;;17.70;8.00;;;;;;;;;;104907;1262;59707;-49
2023/01/15 04:13:36;;;;;;;15.70;8.80;;;;;;;;;;105198;1256;62646;-46
2023/01/15 04:16:03;;;;;;;13.40;7.00;;;;;;;;;;105192;1254;59622;-46
2023/01/15 04:21:03;;;;;;;16.20;8.90;;;;;;;;;;101593;1292;600369;-49
2023/01/15 04:23:33;;;;;;;15.80;8.40;;;;;;;;;;104265;1269;60123;-47
2023/01/15 04:25:59;;;;;;;16.10;8.70;;;;;;;;;;104360;1268;59043;-48
2023/01/15 04:28:26;;;;;;;19.00;9.90;;;;;;;;;;104288;1267;61659;-46
2023/01/15 04:30:55;;;;;;;21.70;10.10;;;;;;;;;;104361;1267;59113;-48
2023/01/15 04:33:22;;;;;;;19.80;10.20;;;;;;;;;;104363;1272;60675;-49
2023/01/15 04:35:48;;;;;;;17.80;9.90;;;;;;;;;;104351;1269;162002;-47
2023/01/15 04:38:16;;;;;;;18.80;10.30;;;;;;;;;;104494;1266;58962;-48
2023/01/15 04:46:14;;;;;;;21.30;11.70;;;;;;;;;;104472;1266;60782;-48
2023/01/15 04:48:41;;;;;;;22.30;11.20;;;;;;;;;;104982;1266;59112;-47
2023/01/15 04:51:08;;;;;;;24.60;12.80;;;;;;;;;;104464;1266;59618;-46
2023/01/15 04:53:34;;;;;;;21.50;11.70;;;;;;;;;;104551;1264;61292;-48
2023/01/15 04:56:02;;;;;;;20.30;10.60;;;;;;;;;;104542;1264;60118;-47
2023/01/15 04:58:28;;;;;;;19.20;10.10;;;;;;;;;;104354;1269;61941;-48
2023/01/15 05:00:55;;;;;;;20.60;11.00;;;;;;;;;;104562;1269;59746;-47
2023/01/15 05:03:22;;;;;;;23.20;12.40;;;;;;;;;;105250;1261;59642;-48
2023/01/15 05:05:49;;;;;;;18.90;10.20;;;;;;;;;;104926;1257;61216;-47
2023/01/15 05:08:16;;;;;;;22.60;11.50;;;;;;;;;;104802;1257;60291;-48
2023/01/15 05:10:42;;;;;;;22.70;11.20;;;;;;;;;;104966;1257;62114;-46
2023/01/15 05:13:09;;;;;;;23.70;11.80;;;;;;;;;;104878;1256;59732;-48
2023/01/15 05:15:37;;;;;;;26.90;14.60;;;;;;;;;;104968;1260;59706;-48
2023/01/15 05:18:04;;;;;;;23.10;11.80;;;;;;;;;;104812;1257;62238;-46
2023/01/15 05:20:30;;;;;;;20.90;11.30;;;;;;;;;;104769;1257;59709;-45
2023/01/15 05:22:57;;;;;;;22.60;11.00;;;;;;;;;;104771;1257;61907;-48
2023/01/15 05:25:23;;;;;;;22.00;11.00;;;;;;;;;;104717;1262;59698;-46
2023/01/15 05:27:50;;;;;;;20.90;10.60;;;;;;;;;;104862;1261;59642;-45
2023/01/15 05:30:17;;;;;;;22.20;11.90;;;;;;;;;;105127;1257;62413;-47
2023/01/15 05:32:43;;;;;;;23.00;10.90;;;;;;;;;;104970;1256;59612;-46
2023/01/15 05:35:10;;;;;;;21.20;11.60;;;;;;;;;;104667;1256;60598;-48
2023/01/15 05:37:37;;;;;;;21.40;11.70;;;;;;;;;;104894;1262;60318;-48
2023/01/15 05:40:04;;;;;;;21.10;11.60;;;;;;;;;;104925;1261;59577;-48
2023/01/15 05:42:31;;;;;;;20.80;10.90;;;;;;;;;;104859;1257;61484;-47
2023/01/15 05:44:57;;;;;;;23.90;11.50;;;;;;;;;;104825;1260;59567;-48
2023/01/15 05:47:24;;;;;;;19.50;9.90;;;;;;;;;;104877;1257;60560;-48
2023/01/15 05:49:51;;;;;;;21.20;11.30;;;;;;;;;;104885;1256;59746;-49
2023/01/15 05:52:17;;;;;;;18.70;9.70;;;;;;;;;;104849;1257;59733;-48
2023/01/15 05:54:44;;;;;;;19.30;10.30;;;;;;;;;;104997;1260;61271;-48
2023/01/15 05:57:11;;;;;;;22.60;12.10;;;;;;;;;;104841;1257;59740;-47
2023/01/15 05:59:38;;;;;;;16.30;9.80;;;;;;;;;;104930;1257;61947;-47
2023/01/15 06:02:04;;;;;;;19.60;10.90;;;;;;;;;;105101;1257;59660;-48
2023/01/15 06:04:31;;;;;;;17.10;9.60;;;;;;;;;;104667;1257;59644;-48
2023/01/15 06:06:58;;;;;;;16.10;8.80;;;;;;;;;;104841;1256;61431;-48
2023/01/15 06:09:26;;;;;;;17.60;9.00;;;;;;;;;;104912;1257;59744;-47
2023/01/15 06:11:54;;;;;;;17.20;9.50;;;;;;;;;;104905;1258;61562;-48
2023/01/15 06:14:20;;;;;;;15.80;8.30;;;;;;;;;;104790;1258;59653;-48
2023/01/15 06:16:47;;;;;;;22.20;13.60;;;;;;;;;;105007;1257;59731;-49
2023/01/15 06:19:14;;;;;;;17.80;9.20;;;;;;;;;;105058;1257;61136;-49
2023/01/15 06:21:40;;;;;;;15.00;8.40;;;;;;;;;;104915;1257;59641;-48
2023/01/15 06:24:07;;;;;;;13.40;7.00;;;;;;;;;;104869;1257;60821;-49
2023/01/15 06:26:34;;;;;;;12.70;6.50;;;;;;;;;;105054;1257;59789;-48
2023/01/15 06:29:00;;;;;;;14.60;8.00;;;;;;;;;;104864;1257;59064;-47
2023/01/15 06:31:27;;;;;;;15.30;7.40;;;;;;;;;;104668;1261;62627;-49
2023/01/15 06:33:54;;;;;;;15.40;8.50;;;;;;;;;;104842;1257;59715;-49
2023/01/15 06:36:21;;;;;;;19.80;8.90;;;;;;;;;;104702;1257;60436;-48
2023/01/15 06:38:48;;;;;;;18.80;9.50;;;;;;;;;;104884;1258;60092;-48
2023/01/15 06:49:46;;;;;;;26.00;11.60;;;;;;;;;;108486;1267;57500;-48
2023/01/15 06:52:12;;;;;;;24.50;10.90;;;;;;;;;;108389;1262;61853;-48
2023/01/15 06:54:39;;;;;;;24.60;11.70;;;;;;;;;;108579;1268;58331;-48
2023/01/15 06:57:06;;;;;;;24.40;10.80;;;;;;;;;;108348;1263;159804;-48
2023/01/15 06:59:32;;;;;;;24.50;11.40;;;;;;;;;;108698;1261;57154;-48
2023/01/15 07:01:59;;;;;;;30.20;13.30;;;;;;;;;;104607;1265;59102;-46
2023/01/15 07:04:26;;;;;;;29.70;11.50;;;;;;;;;;104707;1266;61745;-47
2023/01/15 07:06:52;;;;;;;25.90;11.30;;;;;;;;;;104414;1267;59195;-47
2023/01/15 07:09:19;;;;;;;26.60;11.60;;;;;;;;;;104467;1260;61735;-46
2023/01/15 07:11:48;;;;;;;24.20;10.70;;;;;;;;;;104657;1264;59863;-48
2023/01/15 07:14:19;;;;;;;23.90;10.60;;;;;;;;;;104427;1266;59672;-46
2023/01/15 07:16:46;;;;;;;27.50;11.50;;;;;;;;;;104647;1267;62431;-47
2023/01/15 07:19:12;;;;;;;30.00;14.00;;;;;;;;;;104629;1266;59635;-48
2023/01/15 07:21:39;;;;;;;23.80;11.30;;;;;;;;;;104776;1264;60458;-47
2023/01/15 07:24:06;;;;;;;28.80;12.20;;;;;;;;;;104798;1267;59926;-48
2023/01/15 07:26:33;;;;;;;26.40;12.10;;;;;;;;;;104727;1263;59656;-48
2023/01/15 07:29:00;;;;;;;24.10;10.00;;;;;;;;;;104522;1266;62425;-48
2023/01/15 07:31:26;;;;;;;25.10;11.40;;;;;;;;;;104569;1264;59666;-48
2023/01/15 07:33:54;;;;;;;26.40;11.40;;;;;;;;;;104400;1263;60834;-44
2023/01/15 07:36:21;;;;;;;25.10;10.40;;;;;;;;;;104614;1267;59727;-46
2023/01/15 07:38:47;;;;;;;26.00;12.00;;;;;;;;;;104591;1267;59624;-47
2023/01/15 07:49:47;;;;;;;22.60;10.30;;;;;;;;;;104469;1267;59804;-46
2023/01/15 07:52:18;;;;;;;19.50;9.20;;;;;;;;;;104458;1269;59557;-47
2023/01/15 07:54:45;;;;;;;23.10;9.70;;;;;;;;;;104657;1264;61456;-47
2023/01/15 07:57:12;;;;;;;19.70;9.10;;;;;;;;;;105013;1267;60656;-47
2023/01/15 07:59:38;;;;;;;21.20;10.90;;;;;;;;;;104335;1265;61886;-47
2023/01/15 08:02:05;;;;;;;26.50;11.00;;;;;;;;;;104515;1269;59666;-47
2023/01/15 08:04:32;;;;;;;17.90;8.80;;;;;;;;;;104534;1264;59914;-47
2023/01/15 08:07:00;;;;;;;14.30;7.10;;;;;;;;;;104666;1267;61476;-47
2023/01/15 08:09:26;;;;;;;13.30;7.00;;;;;;;;;;104431;1268;59868;-47
2023/01/15 08:17:24;;;;;;;14.70;7.00;;;;;;;;;;104214;1267;59627;-46
2023/01/15 08:19:51;;;;;;;16.40;7.50;;;;;;;;;;104478;1267;61330;-48
2023/01/15 08:22:17;;;;;;;14.10;7.00;;;;;;;;;;104526;1269;59681;-48
2023/01/15 08:24:44;;;;;;;16.20;7.90;;;;;;;;;;104229;1269;60672;-47
2023/01/15 08:27:11;;;;;;;17.10;9.30;;;;;;;;;;104152;1269;59949;-48
2023/01/15 08:29:37;;;;;;;15.20;9.00;;;;;;;;;;104240;1266;62536;-47
2023/01/15 08:32:04;;;;;;;16.50;8.50;;;;;;;;;;104578;1269;63912;-47
2023/01/15 08:34:31;;;;;;;13.50;7.10;;;;;;;;;;104387;1263;60272;-48
2023/01/15 08:36:58;;;;;;;14.40;7.80;;;;;;;;;;104220;1264;62437;-47
2023/01/15 08:39:26;;;;;;;15.00;8.60;;;;;;;;;;104294;1269;59733;-47
2023/01/15 08:41:53;;;;;;;14.80;7.50;;;;;;;;;;104440;1267;59548;-45
2023/01/15 08:44:20;;;;;;;13.50;7.60;;;;;;;;;;104455;1267;62661;-47
2023/01/15 08:46:47;;;;;;;12.80;6.10;;;;;;;;;;104403;1269;59464;-47
2023/01/15 08:49:14;;;;;;;21.50;10.10;;;;;;;;;;104550;1269;61756;-47
2023/01/15 08:51:41;;;;;;;22.10;10.40;;;;;;;;;;104550;1269;59676;-47
2023/01/15 08:54:07;;;;;;;21.80;10.20;;;;;;;;;;104353;1267;60291;-48
2023/01/15 08:56:34;;;;;;;15.70;8.60;;;;;;;;;;104246;1273;61473;-48
2023/01/15 08:59:04;;;;;;;17.10;8.10;;;;;;;;;;104276;1264;59705;-46
2023/01/15 09:01:31;;;;;;;16.70;8.10;;;;;;;;;;108597;1264;62172;-48
2023/01/15 09:03:58;;;;;;;19.40;10.60;;;;;;;;;;105359;1264;59621;-47
2023/01/15 09:06:25;;;;;;;15.30;7.50;;;;;;;;;;104187;1268;59711;-47
2023/01/15 09:08:51;;;;;;;15.70;8.30;;;;;;;;;;104416;1266;61333;-46
2023/01/15 09:11:18;;;;;;;51.60;24.60;;;;;;;;;;104470;1267;60190;-45
2023/01/15 09:13:46;;;;;;;16.70;8.50;;;;;;;;;;104558;1267;61641;-46
2023/01/15 09:16:13;;;;;;;16.00;9.00;;;;;;;;;;104274;1266;59744;-47
2023/01/15 09:18:40;;;;;;;17.80;7.80;;;;;;;;;;104642;1267;59618;-47
2023/01/15 09:21:06;;;;;;;16.20;7.80;;;;;;;;;;105008;1269;62552;-47
2023/01/15 09:25:15;;;;;;;16.10;7.70;;;;;;;;;;104371;1291;601344;-79
2023/01/15 09:27:42;;;;;;;18.50;8.00;;;;;;;;;;104182;1269;61923;-45
2023/01/15 09:30:10;;;;;;;16.70;8.40;;;;;;;;;;103628;1275;59173;-47
2023/01/15 09:32:37;;;;;;;18.40;8.80;;;;;;;;;;105344;1274;61345;-48
2023/01/15 09:35:04;;;;;;;18.80;7.70;;;;;;;;;;103753;1269;59159;-47
2023/01/15 09:37:31;;;;;;;15.40;6.80;;;;;;;;;;108097;1269;60297;-48
2023/01/15 09:39:57;;;;;;;16.50;8.50;;;;;;;;;;107385;1269;160618;-47
2023/01/15 09:42:27;;;;;;;17.40;7.80;;;;;;;;;;103676;1266;59009;-47
2023/01/15 09:44:54;;;;;;;20.10;9.70;;;;;;;;;;104264;1271;60383;-48
2023/01/15 09:47:33;;;;;;;23.20;12.30;;;;;;;;;;104364;1272;59069;-50
2023/01/15 09:50:09;;;;;;;16.10;9.00;;;;;;;;;;104614;1266;60863;-48
2023/01/15 09:52:45;;;;;;;19.00;8.80;;;;;;;;;;104426;1272;59684;-46
2023/01/15 09:55:12;;;;;;;14.50;7.80;;;;;;;;;;104601;1269;59612;-49
2023/01/15 09:57:39;;;;;;;14.90;7.70;;;;;;;;;;104558;1271;62516;-49
2023/01/15 10:00:06;;;;;;;13.50;7.60;;;;;;;;;;104549;1266;59634;-46
2023/01/15 10:02:42;;;;;;;12.80;6.60;;;;;;;;;;104510;1269;61693;-48
2023/01/15 10:05:10;;;;;;;8.40;6.00;;;;;;;;;;104496;1266;59804;-47
2023/01/15 10:07:42;;;;;;;10.70;7.60;;;;;;;;;;104374;1270;60019;-47
2023/01/15 10:10:10;;;;;;;18.40;11.30;;;;;;;;;;104698;1269;61521;-49
2023/01/15 10:12:38;;;;;;;10.60;6.90;;;;;;;;;;104481;1266;59628;-47
2023/01/15 10:15:21;;;;;;;13.50;7.50;;;;;;;;;;105148;1267;61598;-48
2023/01/15 10:17:48;;;;;;;12.60;6.10;;;;;;;;;;104421;1267;60122;-47
2023/01/15 10:20:17;;;;;;;13.40;6.90;;;;;;;;;;105459;1266;59614;-47
2023/01/15 10:22:59;;;;;;;12.10;6.50;;;;;;;;;;104456;1267;62375;-45
2023/01/15 10:25:27;;;;;;;10.20;6.20;;;;;;;;;;104300;1269;59714;-46
2023/01/15 10:27:54;;;;;;;18.50;10.00;;;;;;;;;;104120;1269;60936;-45
2023/01/15 10:30:28;;;;;;;16.30;8.10;;;;;;;;;;103919;1272;59715;-47
2023/01/15 10:32:55;;;;;;;16.70;9.20;;;;;;;;;;105114;1260;59622;-46
2023/01/15 10:35:30;;;;;;;14.20;8.10;;;;;;;;;;104646;1259;62348;-45
2023/01/15 10:38:13;;;;;;;12.20;7.40;;;;;;;;;;104828;1265;59694;-48
2023/01/15 10:40:43;;;;;;;13.10;6.40;;;;;;;;;;104882;1260;61741;-48
2023/01/15 10:43:42;;;;;;;12.80;6.90;;;;;;;;;;104913;1265;59743;-48
2023/01/15 10:46:13;;;;;;;9.40;6.10;;;;;;;;;;104653;1260;59719;-49
2023/01/15 10:48:56;;;;;;;9.20;4.50;;;;;;;;;;104942;1265;63018;-49
2023/01/15 10:51:23;;;;;;;9.10;5.30;;;;;;;;;;104975;1260;59804;-50
2023/01/15 10:54:02;;;;;;;7.30;4.90;;;;;;;;;;104952;1259;60882;-49
2023/01/15 10:56:33;;;;;;;13.10;7.30;;;;;;;;;;104789;1262;59926;-48
2023/01/15 10:59:20;;;;;;;5.60;3.60;;;;;;;;;;104888;1259;59624;-48
2023/01/15 11:01:48;;;;;;;6.00;4.00;;;;;;;;;;104684;1259;62307;-48
2023/01/15 11:04:15;;;;;;;7.40;5.20;;;;;;;;;;108388;1260;57800;-48
2023/01/15 11:06:42;;;;;;;5.40;4.30;;;;;;;;;;108598;1262;60933;-49
2023/01/15 11:09:16;;;;;;;11.30;6.10;;;;;;;;;;108575;1262;57346;-48
2023/01/15 11:20:17;;;;;;;5.80;3.60;;;;;;;;;;105144;1262;60951;-47
2023/01/15 11:22:43;;;;;;;12.00;5.40;;;;;;;;;;105475;1276;59641;-46
2023/01/15 11:25:10;;;;;;;5.90;3.80;;;;;;;;;;105269;1260;59628;-47
2023/01/15 11:27:37;;;;;;;8.50;5.30;;;;;;;;;;107044;1260;61467;-49
2023/01/15 11:30:04;;;;;;;9.50;6.00;;;;;;;;;;104959;1260;60095;-45
2023/01/15 11:32:32;;;;;;;8.30;4.70;;;;;;;;;;107823;1265;60938;-48
2023/01/15 11:35:03;;;;;;;7.50;3.60;;;;;;;;;;106078;1259;59779;-49
2023/01/15 11:37:30;;;;;;;7.20;3.40;;;;;;;;;;107178;1260;59688;-47
2023/01/15 11:40:02;;;;;;;6.70;3.40;;;;;;;;;;105016;1265;62381;-46
2023/01/15 11:51:06;;;;;;;8.10;5.50;;;;;;;;;;105055;1260;59647;-48
2023/01/15 11:53:53;;;;;;;21.70;13.30;;;;;;;;;;105677;1265;61385;-50
2023/01/15 11:56:22;;;;;;;9.60;5.70;;;;;;;;;;105809;1265;59776;-49
2023/01/15 11:58:49;;;;;;;22.50;14.40;;;;;;;;;;104893;1266;60579;-47
2023/01/15 12:01:27;;;;;;;21.90;13.30;;;;;;;;;;104782;1265;59765;-48
2023/01/15 12:03:54;;;;;;;9.90;5.20;;;;;;;;;;105269;1259;60014;-46
2023/01/15 12:06:21;;;;;;;36.60;19.70;;;;;;;;;;105004;1265;63034;-47
2023/01/15 12:08:51;;;;;;;20.20;12.00;;;;;;;;;;104968;1263;59770;-49
2023/01/15 12:11:21;;;;;;;12.70;8.10;;;;;;;;;;105093;1264;60980;-49
2023/01/15 12:13:56;;;;;;;14.70;9.80;;;;;;;;;;105935;1265;59771;-46
2023/01/15 12:16:33;;;;;;;10.00;6.00;;;;;;;;;;105012;1266;60174;-47
2023/01/15 12:19:05;;;;;;;13.60;7.50;;;;;;;;;;104978;1264;61265;-51
2023/01/15 12:21:51;;;;;;;16.20;7.10;;;;;;;;;;105144;1263;59574;-47
2023/01/15 12:24:30;;;;;;;16.90;8.90;;;;;;;;;;104862;1259;60555;-49
2023/01/15 12:27:29;;;;;;;35.90;21.50;;;;;;;;;;104706;1263;59726;-47
2023/01/15 12:29:58;;;;;;;30.40;18.60;;;;;;;;;;104360;1269;60036;-47
2023/01/15 12:32:32;;;;;;;19.30;13.40;;;;;;;;;;104501;1260;61070;-47
2023/01/15 12:35:06;;;;;;;18.40;9.60;;;;;;;;;;104697;1267;59911;-49
2023/01/15 12:37:43;;;;;;;12.40;6.10;;;;;;;;;;104982;1266;63521;-48
2023/01/15 12:40:13;;;;;;;12.00;7.70;;;;;;;;;;105004;1265;59777;-47
2023/01/15 12:45:27;;;;;;;13.10;7.80;;;;;;;;;;105030;1262;61356;-50
2023/01/15 12:48:01;;;;;;;10.60;5.90;;;;;;;;;;104939;1266;60310;-49
2023/01/15 12:50:31;;;;;;;24.80;13.00;;;;;;;;;;106119;1265;60892;-47
2023/01/15 12:52:58;;;;;;;17.50;10.00;;;;;;;;;;105055;1265;59781;-49
2023/01/15 12:55:28;;;;;;;19.30;9.80;;;;;;;;;;104998;1265;59606;-48
2023/01/15 12:57:59;;;;;;;13.30;6.40;;;;;;;;;;105074;1265;62345;-48
2023/01/15 13:00:34;;;;;;;11.60;7.00;;;;;;;;;;104935;1266;59654;-49
2023/01/15 13:03:04;;;;;;;12.80;6.30;;;;;;;;;;105489;1260;60838;-46
2023/01/15 13:05:46;;;;;;;13.30;6.50;;;;;;;;;;106145;1265;59808;-48
2023/01/15 13:08:22;;;;;;;13.90;6.00;;;;;;;;;;104828;1267;59769;-48
2023/01/15 13:10:49;;;;;;;13.90;6.80;;;;;;;;;;105135;1261;61453;-47
2023/01/15 13:13:17;;;;;;;12.20;6.50;;;;;;;;;;105295;1256;59609;-47
2023/01/15 13:15:56;;;;;;;10.90;4.90;;;;;;;;;;105311;1262;62101;-48
2023/01/15 13:18:25;;;;;;;12.50;5.30;;;;;;;;;;105194;1262;59663;-48
2023/01/15 13:20:54;;;;;;;10.70;5.70;;;;;;;;;;106460;1257;59549;-48
2023/01/15 13:23:40;;;;;;;9.10;4.60;;;;;;;;;;106269;1261;62607;-48
2023/01/15 13:26:16;;;;;;;11.40;5.20;;;;;;;;;;104859;1260;59578;-48
2023/01/15 13:28:50;;;;;;;10.90;5.30;;;;;;;;;;105214;1262;60951;-47
2023/01/15 13:31:17;;;;;;;;;;;;;;;;;;108428;1256;57922;-48
2023/01/15 13:33:48;;;;;;;10.70;5.10;;;;;;;;;;105306;1261;59627;-47
2023/01/15 13:36:16;;;;;;;9.90;5.10;;;;;;;;;;105204;1257;62914;-48
2023/01/15 13:38:44;;;;;;;11.50;5.90;;;;;;;;;;106971;1258;59685;-48
2023/01/15 13:41:12;;;;;;;8.60;5.10;;;;;;;;;;105440;1261;61958;-48
2023/01/15 13:43:39;;;;;;;11.70;6.20;;;;;;;;;;105387;1256;60533;-46
2023/01/15 13:46:07;;;;;;;9.70;4.90;;;;;;;;;;105340;1262;60380;-47
2023/01/15 13:48:43;;;;;;;11.80;5.80;;;;;;;;;;105457;1261;63285;-45
2023/01/15 13:51:25;;;;;;;11.10;6.30;;;;;;;;;;108867;1258;58639;-49
2023/01/15 13:53:52;;;;;;;14.50;7.00;;;;;;;;;;108778;1256;60902;-46
2023/01/15 13:56:30;;;;;;;10.30;5.90;;;;;;;;;;105210;1262;60432;-48
2023/01/15 13:59:00;;;;;;;13.60;6.40;;;;;;;;;;105748;1261;60528;-48
2023/01/15 14:01:32;;;;;;;11.10;6.00;;;;;;;;;;107605;1259;63543;-48
2023/01/15 14:03:59;;;;;;;10.50;6.00;;;;;;;;;;105831;1259;60338;-48
2023/01/15 14:06:42;;;;;;;12.50;6.20;;;;;;;;;;105256;1260;61647;-50
2023/01/15 14:09:09;;;;;;;12.40;6.00;;;;;;;;;;105371;1257;60601;-47
2023/01/15 14:11:39;;;;;;;13.20;5.90;;;;;;;;;;105363;1262;60389;-48
2023/01/15 14:14:06;;;;;;;10.30;5.00;;;;;;;;;;105394;1257;63277;-46
2023/01/15 14:16:56;;;;;;;10.30;6.40;;;;;;;;;;105313;1263;60441;-45
2023/01/15 14:19:22;;;;;;;8.00;4.50;;;;;;;;;;105106;1266;62223;-48
2023/01/15 16:22:02;;;;;;;12.60;6.30;;;;;;;-1.09;100.00;99812.46;102520;1283;614249;-50
2023/01/15 16:24:29;;;;;;;21.40;10.60;;;;;;;-0.94;100.00;99807.70;106248;1267;109384;-49
2023/01/15 16:27:12;;;;;;;12.40;7.00;;;;;;;-0.89;100.00;99805.40;103928;1279;61357;-50
2023/01/15 16:29:39;;;;;;;12.00;4.70;;;;;;;-0.84;100.00;99803.27;108316;1266;73487;-51
2023/01/15 16:32:12;;;;;;;13.00;7.40;;;;;;;-0.83;100.00;99797.45;108223;1264;70275;-51
2023/01/15 16:34:39;;;;;;;15.80;10.50;;;;;;;-0.81;100.00;99800.45;104906;1267;74684;-47
2023/01/15 16:37:21;;;;;;;11.80;6.10;;;;;;;-0.79;100.00;99796.39;103891;1264;62352;-52
2023/01/15 16:39:48;;;;;;;9.10;3.60;;;;;;;-0.75;100.00;99790.03;104286;1264;60398;-52
2023/01/15 16:42:33;;;;;;;5.90;3.90;;;;;;;-0.73;100.00;99790.56;104099;1267;74578;-51
2023/01/15 16:45:02;;;;;;;9.20;3.90;;;;;;;-0.71;100.00;99784.22;104191;1269;68918;-52
2023/01/15 16:47:32;;;;;;;9.90;4.90;;;;;;;-0.70;100.00;99781.23;104037;1270;74618;-50
2023/01/15 16:50:21;;;;;;;8.00;5.20;;;;;;;-0.70;100.00;99776.30;104352;1267;61199;-51
2023/01/15 16:52:55;;;;;;;10.10;4.80;;;;;;;-0.69;100.00;99782.46;104178;1270;60242;-51
2023/01/15 16:55:41;;;;;;;7.90;4.00;;;;;;;-0.69;100.00;99786.33;104625;1269;74354;-50
2023/01/15 16:58:11;;;;;;;8.20;4.00;;;;;;;-0.68;100.00;99783.49;104204;1267;68570;-50
2023/01/15 17:00:46;;;;;;;11.70;5.20;;;;;;;-0.67;100.00;99783.31;104288;1269;72682;-50
2023/01/15 17:03:15;;;;;;;11.20;5.70;;;;;;;-0.67;100.00;99785.42;104127;1271;61740;-51
2023/01/15 17:05:42;;;;;;;11.90;4.80;;;;;;;-0.65;100.00;99790.02;104390;1272;62906;-52
2023/01/15 17:08:15;;;;;;;13.20;6.30;;;;;;;-0.66;100.00;99790.02;104252;1264;75095;-51
2023/01/15 17:10:50;;;;;;;12.10;5.50;;;;;;;-0.66;100.00;99786.84;104269;1269;68069;-52
2023/01/15 17:13:18;;;;;;;55.50;22.60;;;;;;;-0.65;100.00;99785.08;104613;1268;71674;-50
2023/01/15 17:15:45;;;;;;;55.80;19.40;;;;;;;-0.63;100.00;99783.14;104205;1269;62113;-52
2023/01/15 17:18:20;;;;;;;15.50;7.00;;;;;;;-0.65;100.00;99777.15;104271;1270;62008;-50
2023/01/15 17:20:47;;;;;;;21.60;9.10;;;;;;;-0.66;100.00;99782.61;104806;1266;73732;-50